createdAt,value
2023-02-09T00:01:35.092Z,2.95
2023-02-09T00:04:02.927Z,3.72
2023-02-09T00:06:30.204Z,4.25
2023-02-09T00:08:58.240Z,3.40
2023-02-09T00:11:49.043Z,4.43
2023-02-09T00:14:21.068Z,4.45
2023-02-09T00:16:48.245Z,4.47
2023-02-09T00:19:15.030Z,4.40
2023-02-09T00:21:41.633Z,3.75
2023-02-09T00:24:10.558Z,3.75
2023-02-09T00:26:37.846Z,2.78
2023-02-09T00:29:04.684Z,3.80
2023-02-09T00:31:31.126Z,3.20
2023-02-09T00:33:57.885Z,2.35
2023-02-09T00:36:24.239Z,3.33
2023-02-09T00:38:50.641Z,2.40
2023-02-09T00:41:17.528Z,2.67
2023-02-09T00:43:44.181Z,3.83
2023-02-09T00:46:10.657Z,4.75
2023-02-09T00:48:37.564Z,3.20
2023-02-09T00:51:04.019Z,5.20
2023-02-09T00:53:30.759Z,3.38
2023-02-09T00:55:57.122Z,2.70
2023-02-09T00:58:23.468Z,2.78
2023-02-09T01:00:50.360Z,4.03
2023-02-09T01:03:16.804Z,4.78
2023-02-09T01:05:43.207Z,2.88
2023-02-09T01:08:10.418Z,3.88
2023-02-09T01:10:38.324Z,3.38
2023-02-09T01:13:05.470Z,3.65
2023-02-09T01:15:32.148Z,3.40
2023-02-09T01:17:59.413Z,2.85
2023-02-09T01:20:26.807Z,3.80
2023-02-09T01:22:53.708Z,3.10
2023-02-09T01:25:20.143Z,4.18
2023-02-09T01:27:46.897Z,3.47
2023-02-09T01:30:14.128Z,2.58
2023-02-09T01:32:40.508Z,3.05
2023-02-09T01:35:07.717Z,5.22
2023-02-09T01:37:35.182Z,2.95
2023-02-09T01:40:02.501Z,3.38
2023-02-09T01:42:29.052Z,4.50
2023-02-09T01:45:07.402Z,2.35
2023-02-09T01:47:41.678Z,5.30
2023-02-09T01:50:09.142Z,2.42
2023-02-09T01:52:35.887Z,3.90
2023-02-09T01:55:06.699Z,1.63
2023-02-09T01:57:40.055Z,2.90
2023-02-09T02:00:18.743Z,2.10
2023-02-09T02:02:49.667Z,3.50
2023-02-09T02:05:16.686Z,1.75
2023-02-09T02:07:48.778Z,2.60
2023-02-09T02:10:15.596Z,2.13
2023-02-09T02:12:42.925Z,5.20
2023-02-09T02:15:10.301Z,6.82
2023-02-09T02:18:03.831Z,3.03
2023-02-09T02:20:49.394Z,3.08
2023-02-09T02:23:26.795Z,1.15
2023-02-09T02:26:07.064Z,2.72
2023-02-09T02:29:04.124Z,2.55
2023-02-09T02:31:49.178Z,2.50
2023-02-09T02:34:37.560Z,3.25
2023-02-09T02:37:22.977Z,3.05
2023-02-09T02:40:04.619Z,4.10
2023-02-09T02:42:52.295Z,3.83
2023-02-09T02:45:34.098Z,2.20
2023-02-09T02:48:09.490Z,2.30
2023-02-09T02:50:39.817Z,3.70
2023-02-09T02:53:09.713Z,2.42
2023-02-09T02:55:38.980Z,3.60
2023-02-09T02:58:09.517Z,4.30
2023-02-09T03:00:44.189Z,2.67
2023-02-09T03:03:34.228Z,2.38
2023-02-09T03:06:04.223Z,3.85
2023-02-09T03:08:31.212Z,3.47
2023-02-09T03:10:57.738Z,2.95
2023-02-09T03:13:51.559Z,3.00
2023-02-09T03:16:25.712Z,2.38
2023-02-09T03:19:10.849Z,2.50
2023-02-09T03:22:08.867Z,2.88
2023-02-09T03:24:36.215Z,3.13
2023-02-09T03:27:10.532Z,2.83
2023-02-09T03:29:38.805Z,3.58
2023-02-09T03:32:06.249Z,2.63
2023-02-09T03:34:33.498Z,2.30
2023-02-09T03:37:00.051Z,3.03
2023-02-09T03:39:26.490Z,2.97
2023-02-09T03:41:53.248Z,1.80
2023-02-09T03:44:28.503Z,4.30
2023-02-09T03:46:59.388Z,3.00
2023-02-09T03:49:28.538Z,3.20
2023-02-09T03:51:55.093Z,4.35
2023-02-09T03:54:22.138Z,2.17
2023-02-09T03:56:48.602Z,2.67
2023-02-09T03:59:15.062Z,2.63
2023-02-09T04:01:41.757Z,2.08
2023-02-09T04:04:08.614Z,2.22
2023-02-09T04:06:35.643Z,1.92
2023-02-09T04:09:05.031Z,1.35
2023-02-09T04:11:32.002Z,1.70
2023-02-09T04:13:58.557Z,2.58
2023-02-09T04:16:25.372Z,3.05
2023-02-09T04:18:52.362Z,3.55
2023-02-09T04:21:19.371Z,4.18
2023-02-09T04:23:45.858Z,3.50
2023-02-09T04:26:12.763Z,3.10
2023-02-09T04:28:39.119Z,2.85
2023-02-09T04:31:05.834Z,2.88
2023-02-09T04:33:32.658Z,4.28
2023-02-09T04:35:59.590Z,4.07
2023-02-09T04:38:26.341Z,2.70
2023-02-09T04:40:54.815Z,3.30
2023-02-09T04:43:21.863Z,4.28
2023-02-09T04:45:48.274Z,3.05
2023-02-09T04:48:17.729Z,1.90
2023-02-09T04:50:44.742Z,2.28
2023-02-09T04:53:11.449Z,2.28
2023-02-09T04:55:39.385Z,1.58
2023-02-09T04:58:24.430Z,1.55
2023-02-09T05:00:51.182Z,2.55
2023-02-09T05:03:17.582Z,1.77
2023-02-09T05:05:44.016Z,1.63
2023-02-09T05:08:10.911Z,2.78
2023-02-09T05:10:37.285Z,2.08
2023-02-09T05:13:03.615Z,3.03
2023-02-09T05:15:30.754Z,2.88
2023-02-09T05:17:57.120Z,2.33
2023-02-09T05:20:23.485Z,2.50
2023-02-09T05:22:50.365Z,3.72
2023-02-09T05:25:16.996Z,4.40
2023-02-09T05:27:43.354Z,2.63
2023-02-09T05:30:11.947Z,2.35
2023-02-09T05:32:38.281Z,3.20
2023-02-09T05:35:08.339Z,1.45
2023-02-09T05:37:36.124Z,1.65
2023-02-09T05:40:03.071Z,3.08
2023-02-09T05:42:30.147Z,4.50
2023-02-09T05:44:56.924Z,2.35
2023-02-09T05:47:24.717Z,2.30
2023-02-09T05:49:52.270Z,2.88
2023-02-09T05:52:19.935Z,2.30
2023-02-09T05:54:49.331Z,1.80
2023-02-09T05:57:17.365Z,3.08
2023-02-09T05:59:44.469Z,2.35
2023-02-09T06:02:11.134Z,2.85
2023-02-09T06:04:37.516Z,2.83
2023-02-09T06:07:04.260Z,2.22
2023-02-09T06:09:30.587Z,1.98
2023-02-09T06:11:57.299Z,2.30
2023-02-09T06:14:23.712Z,1.92
2023-02-09T06:16:50.059Z,1.50
2023-02-09T06:19:20.400Z,1.55
2023-02-09T06:21:47.194Z,3.17
2023-02-09T06:24:14.641Z,2.30
2023-02-09T06:26:41.849Z,1.92
2023-02-09T06:29:09.231Z,2.97
2023-02-09T06:31:35.708Z,2.95
2023-02-09T06:34:02.682Z,2.55
2023-02-09T06:36:29.001Z,3.70
2023-02-09T06:38:55.408Z,4.20
2023-02-09T06:41:22.158Z,3.05
2023-02-09T06:43:48.570Z,5.43
2023-02-09T06:46:15.174Z,4.85
2023-02-09T06:48:42.083Z,2.72
2023-02-09T06:51:13.729Z,2.17
2023-02-09T06:53:42.940Z,2.80
2023-02-09T06:56:11.125Z,1.88
2023-02-09T06:58:37.779Z,2.00
2023-02-09T07:01:05.652Z,2.78
2023-02-09T07:03:32.025Z,2.83
2023-02-09T07:06:07.240Z,3.10
2023-02-09T07:08:34.518Z,3.33
2023-02-09T07:11:02.859Z,4.07
2023-02-09T07:13:32.434Z,1.98
2023-02-09T07:16:00.244Z,1.88
2023-02-09T07:18:27.178Z,2.70
2023-02-09T07:21:01.475Z,2.55
2023-02-09T07:23:28.501Z,2.22
2023-02-09T07:25:54.894Z,3.42
2023-02-09T07:28:22.639Z,4.75
2023-02-09T07:30:51.920Z,3.92
2023-02-09T07:33:20.094Z,2.92
2023-02-09T07:35:48.595Z,2.45
2023-02-09T07:38:15.178Z,2.92
2023-02-09T07:40:46.396Z,3.67
2023-02-09T07:43:14.574Z,2.63
2023-02-09T07:45:41.883Z,3.63
2023-02-09T07:48:10.851Z,2.22
2023-02-09T07:50:38.270Z,3.20
2023-02-09T07:53:04.624Z,2.80
2023-02-09T07:55:31.518Z,4.88
2023-02-09T07:57:57.899Z,5.90
2023-02-09T08:00:25.438Z,4.00
2023-02-09T08:02:52.274Z,4.22
2023-02-09T08:05:30.416Z,3.38
2023-02-09T08:07:57.254Z,3.80
2023-02-09T08:10:23.721Z,4.20
2023-02-09T08:12:59.971Z,3.63
2023-02-09T08:15:41.314Z,5.30
2023-02-09T08:18:14.111Z,6.00
2023-02-09T08:20:43.825Z,7.40
2023-02-09T08:23:18.847Z,6.53
2023-02-09T08:28:12.120Z,3.13
2023-02-09T08:30:38.877Z,4.57
2023-02-09T08:33:05.694Z,9.20
2023-02-09T08:35:32.083Z,6.05
2023-02-09T08:38:03.102Z,7.55
2023-02-09T08:40:31.522Z,9.77
2023-02-09T08:42:58.066Z,6.68
2023-02-09T08:45:24.697Z,6.28
2023-02-09T08:47:51.865Z,5.75
2023-02-09T08:50:18.360Z,4.13
2023-02-09T08:52:44.709Z,6.63
2023-02-09T08:55:11.877Z,7.22
2023-02-09T08:57:44.395Z,4.85
2023-02-09T09:00:12.424Z,7.57
2023-02-09T09:02:38.801Z,7.55
2023-02-09T09:05:05.517Z,8.05
2023-02-09T09:07:32.393Z,11.27
2023-02-09T09:09:58.782Z,10.63
2023-02-09T09:12:25.383Z,11.43
2023-02-09T09:14:52.247Z,18.10
2023-02-09T09:17:18.584Z,16.48
2023-02-09T09:19:44.942Z,14.35
2023-02-09T09:22:11.662Z,16.05
2023-02-09T09:24:40.608Z,14.35
2023-02-09T09:27:10.866Z,12.45
2023-02-09T09:29:39.947Z,6.05
2023-02-09T09:32:06.969Z,4.13
2023-02-09T09:34:34.152Z,5.88
2023-02-09T09:37:00.854Z,5.80
2023-02-09T09:39:27.528Z,6.47
2023-02-09T09:41:59.263Z,6.22
2023-02-09T09:44:38.497Z,8.73
2023-02-09T09:47:15.180Z,5.07
2023-02-09T09:49:42.401Z,2.40
2023-02-09T09:52:16.371Z,6.75
2023-02-09T09:54:44.650Z,5.22
2023-02-09T09:57:26.324Z,9.13
2023-02-09T09:59:54.687Z,7.78
2023-02-09T10:02:30.911Z,8.75
2023-02-09T10:05:27.491Z,6.45
2023-02-09T10:08:10.614Z,8.70
2023-02-09T10:10:46.468Z,9.98
2023-02-09T10:13:26.320Z,4.80
2023-02-09T10:15:57.318Z,10.52
2023-02-09T10:18:29.360Z,7.53
2023-02-09T10:21:01.562Z,8.88
2023-02-09T10:23:46.530Z,10.80
2023-02-09T10:26:13.420Z,11.98
2023-02-09T10:28:44.328Z,10.15
2023-02-09T10:31:27.668Z,8.25
2023-02-09T10:33:59.159Z,8.18
2023-02-09T10:36:39.523Z,10.00
2023-02-09T10:39:18.136Z,10.40
2023-02-09T10:41:49.077Z,13.98
2023-02-09T10:44:17.909Z,11.32
2023-02-09T10:46:46.070Z,15.93
2023-02-09T10:49:42.675Z,12.38
2023-02-09T10:52:12.474Z,12.55
2023-02-09T10:54:47.979Z,10.02
2023-02-09T10:57:25.264Z,9.85
2023-02-09T11:00:02.022Z,11.75
2023-02-09T11:02:35.836Z,7.43
2023-02-09T11:05:04.765Z,8.68
2023-02-09T11:07:41.506Z,9.60
2023-02-09T11:10:13.380Z,6.53
2023-02-09T11:12:40.419Z,11.48
2023-02-09T11:15:15.569Z,11.27
2023-02-09T11:17:46.690Z,8.63
2023-02-09T11:20:32.265Z,9.57
2023-02-09T11:23:03.146Z,13.80
2023-02-09T11:25:50.410Z,10.90
2023-02-09T11:28:35.398Z,12.48
2023-02-09T11:31:33.559Z,6.63
2023-02-09T11:34:06.459Z,12.18
2023-02-09T11:36:42.525Z,9.50
2023-02-09T11:39:32.715Z,10.10
2023-02-09T11:42:21.894Z,12.80
2023-02-09T11:44:56.672Z,8.43
2023-02-09T11:47:37.044Z,8.13
2023-02-09T11:50:08.566Z,8.48
2023-02-09T11:52:44.197Z,9.05
2023-02-09T11:55:24.731Z,13.40
2023-02-09T11:57:59.075Z,10.88
2023-02-09T12:00:29.817Z,10.95
2023-02-09T12:03:04.343Z,11.07
2023-02-09T12:05:31.356Z,13.18
2023-02-09T12:08:22.261Z,10.75
2023-02-09T12:11:13.972Z,17.38
2023-02-09T12:14:03.188Z,13.35
2023-02-09T12:16:35.021Z,10.40
2023-02-09T12:19:03.824Z,10.88
2023-02-09T12:21:34.071Z,10.23
2023-02-09T12:24:01.865Z,8.57
2023-02-09T12:26:41.163Z,10.90
2023-02-09T12:29:24.447Z,13.15
2023-02-09T12:32:09.167Z,8.07
2023-02-09T12:34:46.344Z,12.50
2023-02-09T12:37:12.636Z,11.90
2023-02-09T12:40:02.445Z,13.35
2023-02-09T12:42:38.707Z,8.80
2023-02-09T12:45:34.361Z,8.15
2023-02-09T12:48:10.400Z,10.43
2023-02-09T12:50:42.717Z,11.38
2023-02-09T12:53:21.902Z,12.20
2023-02-09T12:56:11.116Z,13.98
2023-02-09T12:58:58.141Z,12.75
2023-02-09T13:02:02.860Z,9.05
2023-02-09T13:04:34.707Z,12.07
2023-02-09T13:07:02.399Z,11.43
2023-02-09T13:09:35.210Z,11.82
2023-02-09T13:12:05.643Z,13.07
2023-02-09T13:14:32.625Z,18.75
2023-02-09T13:17:08.406Z,10.95
2023-02-09T13:19:56.576Z,17.10
2023-02-09T13:22:35.997Z,16.05
2023-02-09T13:25:36.879Z,12.75
2023-02-09T13:28:15.768Z,15.20
2023-02-09T13:30:43.024Z,16.70
2023-02-09T13:33:38.534Z,9.70
2023-02-09T13:36:24.817Z,15.07
2023-02-09T13:38:52.101Z,15.38
2023-02-09T13:41:30.087Z,19.45
2023-02-09T13:43:56.448Z,17.08
2023-02-09T13:46:28.493Z,15.98
2023-02-09T13:49:09.545Z,13.45
2023-02-09T13:51:36.455Z,15.65
2023-02-09T13:54:03.427Z,15.52
2023-02-09T13:56:31.819Z,17.02
2023-02-09T13:58:59.824Z,18.00
2023-02-09T14:01:30.076Z,16.65
2023-02-09T14:04:03.154Z,16.58
2023-02-09T14:06:51.767Z,17.15
2023-02-09T14:09:23.687Z,15.75
2023-02-09T14:11:55.760Z,17.88
2023-02-09T14:14:50.053Z,12.95
2023-02-09T14:17:29.725Z,19.23
2023-02-09T14:19:58.545Z,19.17
2023-02-09T14:22:35.545Z,18.23
2023-02-09T14:25:13.839Z,16.05
2023-02-09T14:27:41.373Z,17.58
2023-02-09T14:30:16.646Z,17.98
2023-02-09T14:32:45.332Z,18.98
2023-02-09T14:35:17.164Z,18.00
2023-02-09T14:37:44.710Z,19.40
2023-02-09T14:40:11.991Z,16.50
2023-02-09T14:42:56.230Z,20.98
2023-02-09T14:45:30.398Z,19.85
2023-02-09T14:47:56.751Z,18.20
2023-02-09T14:50:24.052Z,19.83
2023-02-09T14:52:54.454Z,18.83
2023-02-09T14:55:27.769Z,17.70
2023-02-09T14:57:54.888Z,17.08
2023-02-09T15:00:24.959Z,20.40
2023-02-09T15:02:52.977Z,20.02
2023-02-09T15:05:20.998Z,18.70
2023-02-09T15:07:54.272Z,19.83
2023-02-09T15:10:26.979Z,17.15
2023-02-09T15:12:54.465Z,19.15
2023-02-09T15:15:22.204Z,18.08
2023-02-09T15:17:48.833Z,17.35
2023-02-09T15:20:20.674Z,18.05
2023-02-09T15:22:47.663Z,17.33
2023-02-09T15:25:14.809Z,17.88
2023-02-09T15:27:52.821Z,18.23
2023-02-09T15:30:24.981Z,17.15
2023-02-09T15:32:52.209Z,15.13
2023-02-09T15:35:24.406Z,17.05
2023-02-09T15:38:01.364Z,16.83
2023-02-09T15:41:00.220Z,16.02
2023-02-09T15:43:46.001Z,13.80
2023-02-09T15:46:22.438Z,18.67
2023-02-09T15:48:48.868Z,16.08
2023-02-09T15:51:16.230Z,15.55
2023-02-09T15:53:43.016Z,15.40
2023-02-09T15:56:11.920Z,16.52
2023-02-09T15:58:42.708Z,16.42
2023-02-09T16:01:15.515Z,13.30
2023-02-09T16:03:42.310Z,15.55
2023-02-09T16:06:21.187Z,16.45
2023-02-09T16:08:48.713Z,16.55
2023-02-09T16:11:24.970Z,17.00
2023-02-09T16:13:51.453Z,15.68
2023-02-09T16:16:18.093Z,17.05
2023-02-09T16:18:46.486Z,17.95
2023-02-09T16:21:28.936Z,16.23
2023-02-09T16:23:58.664Z,15.45
2023-02-09T16:26:27.836Z,13.63
2023-02-09T16:28:54.565Z,15.05
2023-02-09T16:31:22.809Z,14.88
2023-02-09T16:33:53.076Z,11.40
2023-02-09T16:36:21.901Z,13.35
2023-02-09T16:38:48.730Z,14.38
2023-02-09T16:41:36.325Z,16.50
2023-02-09T16:44:14.069Z,12.02
2023-02-09T16:46:41.242Z,13.73
2023-02-09T16:49:19.973Z,15.23
2023-02-09T16:51:46.910Z,13.73
2023-02-09T16:54:13.291Z,10.60
2023-02-09T16:56:53.510Z,12.35
2023-02-09T16:59:20.992Z,11.50
2023-02-09T17:01:48.740Z,12.80
2023-02-09T17:04:15.301Z,11.80
2023-02-09T17:06:42.219Z,13.35
2023-02-09T17:09:16.037Z,13.02
2023-02-09T17:11:43.234Z,11.65
2023-02-09T17:14:09.710Z,12.02
2023-02-09T17:16:40.058Z,13.63
2023-02-09T17:19:13.867Z,13.85
2023-02-09T17:21:41.236Z,14.07
2023-02-09T17:24:13.492Z,14.00
2023-02-09T17:26:41.306Z,14.32
2023-02-09T17:29:07.881Z,12.90
2023-02-09T17:31:50.831Z,12.10
2023-02-09T17:34:20.986Z,13.45
2023-02-09T17:36:47.341Z,14.35
2023-02-09T17:39:13.915Z,12.70
2023-02-09T17:41:45.027Z,17.40
2023-02-09T17:44:24.049Z,14.00
2023-02-09T17:46:55.813Z,15.55
2023-02-09T17:49:22.204Z,15.95
2023-02-09T17:51:49.162Z,15.10
2023-02-09T17:54:18.930Z,17.05
2023-02-09T17:56:45.934Z,15.25
2023-02-09T17:59:13.542Z,14.10
2023-02-09T18:01:45.681Z,13.18
2023-02-09T18:04:33.946Z,11.77
2023-02-09T18:07:00.435Z,8.18
2023-02-09T18:09:26.820Z,11.68
2023-02-09T18:12:01.957Z,12.18
2023-02-09T18:14:31.216Z,13.27
2023-02-09T18:16:57.616Z,16.50
2023-02-09T18:19:24.909Z,16.77
2023-02-09T18:21:57.118Z,15.48
2023-02-09T18:24:25.819Z,10.45
2023-02-09T18:26:52.214Z,11.85
2023-02-09T18:29:20.203Z,11.82
2023-02-09T18:31:47.273Z,14.20
2023-02-09T18:34:14.958Z,14.35
2023-02-09T18:36:41.520Z,15.88
2023-02-09T18:39:08.544Z,12.88
2023-02-09T18:41:34.905Z,14.73
2023-02-09T18:44:01.236Z,12.02
2023-02-09T18:46:28.013Z,12.00
2023-02-09T18:48:54.629Z,13.43
2023-02-09T18:51:21.836Z,8.55
2023-02-09T18:53:50.288Z,11.40
2023-02-09T18:56:22.004Z,13.38
2023-02-09T18:58:52.648Z,11.95
2023-02-09T19:01:21.314Z,12.50
2023-02-09T19:03:52.629Z,7.15
2023-02-09T19:06:22.417Z,7.10
2023-02-09T19:08:50.165Z,10.48
2023-02-09T19:11:19.532Z,5.63
2023-02-09T19:14:04.713Z,8.88
2023-02-09T19:16:31.559Z,11.50
2023-02-09T19:18:58.335Z,10.35
2023-02-09T19:21:24.913Z,10.75
2023-02-09T19:23:51.346Z,8.60
2023-02-09T19:26:17.665Z,9.23
2023-02-09T19:28:43.979Z,10.00
2023-02-09T19:31:13.298Z,7.80
2023-02-09T19:33:39.668Z,11.68
2023-02-09T19:36:06.695Z,10.73
2023-02-09T19:38:33.014Z,11.90
2023-02-09T19:41:10.541Z,7.82
2023-02-09T19:43:41.491Z,9.60
2023-02-09T19:46:10.585Z,10.15
2023-02-09T19:48:40.544Z,15.20
2023-02-09T19:51:07.704Z,11.85
2023-02-09T19:53:34.757Z,10.77
2023-02-09T19:56:01.852Z,14.30
2023-02-09T19:58:28.196Z,12.07
2023-02-09T20:00:55.940Z,9.82
2023-02-09T20:03:23.360Z,10.90
2023-02-09T20:05:50.312Z,9.75
2023-02-09T20:08:18.976Z,8.60
2023-02-09T20:10:46.413Z,13.60
2023-02-09T20:13:13.795Z,9.05
2023-02-09T20:15:42.068Z,12.55
2023-02-09T20:18:08.947Z,11.55
2023-02-09T20:20:35.417Z,12.05
2023-02-09T20:23:01.749Z,8.35
2023-02-09T20:25:29.675Z,10.77
2023-02-09T20:27:56.231Z,8.73
2023-02-09T20:30:22.735Z,12.27
2023-02-09T20:32:49.672Z,12.60
2023-02-09T20:35:16.056Z,12.25
2023-02-09T20:37:42.392Z,16.15
2023-02-09T20:40:11.745Z,13.88
2023-02-09T20:42:57.201Z,11.65
2023-02-09T20:45:42.890Z,10.38
2023-02-09T20:48:09.351Z,12.30
2023-02-09T20:50:35.755Z,14.77
2023-02-09T20:53:02.345Z,9.93
2023-02-09T20:55:29.850Z,13.52
2023-02-09T20:57:56.803Z,11.63
2023-02-09T21:00:23.694Z,11.13
2023-02-09T21:02:50.088Z,11.75
2023-02-09T21:05:16.635Z,14.77
2023-02-09T21:07:43.747Z,12.80
2023-02-09T21:10:12.717Z,10.90
2023-02-09T21:12:39.073Z,13.40
2023-02-09T21:15:06.217Z,10.77
2023-02-09T21:17:33.073Z,11.05
2023-02-09T21:19:59.729Z,8.52
2023-02-09T21:22:26.208Z,10.45
2023-02-09T21:24:54.415Z,11.32
2023-02-09T21:27:20.901Z,11.82
2023-02-09T21:29:47.876Z,10.55
2023-02-09T21:32:14.277Z,9.55
2023-02-09T21:34:42.775Z,11.75
2023-02-09T21:37:13.131Z,8.75
2023-02-09T21:39:40.356Z,8.38
2023-02-09T21:42:26.295Z,10.82
2023-02-09T21:44:54.867Z,9.50
2023-02-09T21:47:29.748Z,7.47
2023-02-09T21:49:57.256Z,10.57
2023-02-09T21:52:24.711Z,12.93
2023-02-09T21:54:52.023Z,14.23
2023-02-09T21:57:18.505Z,13.10
2023-02-09T21:59:44.829Z,13.50
2023-02-09T22:02:15.673Z,11.80
2023-02-09T22:04:43.173Z,6.95
2023-02-09T22:07:10.058Z,9.02
2023-02-09T22:09:37.423Z,8.48
2023-02-09T22:12:04.670Z,10.20
2023-02-09T22:14:31.282Z,10.80
2023-02-09T22:16:58.076Z,8.73
2023-02-09T22:19:25.449Z,8.82
2023-02-09T22:21:52.007Z,7.25
2023-02-09T22:24:19.754Z,9.65
2023-02-09T22:26:46.802Z,7.28
2023-02-09T22:29:14.911Z,10.60
2023-02-09T22:31:41.991Z,10.20
2023-02-09T22:34:08.415Z,12.00
2023-02-09T22:36:35.429Z,8.93
2023-02-09T22:39:04.118Z,9.88
2023-02-09T22:41:31.214Z,7.72
2023-02-09T22:44:03.076Z,11.02
2023-02-09T22:46:32.998Z,9.48
2023-02-09T22:49:01.336Z,9.65
2023-02-09T22:51:30.128Z,10.30
2023-02-09T22:53:57.932Z,10.00
2023-02-09T22:56:24.707Z,9.80
2023-02-09T22:58:59.384Z,11.38
2023-02-09T23:01:26.205Z,11.80
2023-02-09T23:03:52.780Z,10.57
2023-02-09T23:06:27.422Z,10.35
2023-02-09T23:09:05.690Z,9.02
2023-02-09T23:11:32.071Z,11.15
2023-02-09T23:14:14.762Z,9.23
2023-02-09T23:16:42.720Z,7.80
2023-02-09T23:19:13.327Z,10.13
2023-02-09T23:21:43.163Z,12.43
2023-02-09T23:24:10.453Z,10.25
2023-02-09T23:26:38.057Z,7.75
2023-02-09T23:29:08.836Z,9.90
2023-02-09T23:31:36.211Z,10.90
2023-02-09T23:34:03.064Z,9.10
2023-02-09T23:36:31.863Z,10.25
2023-02-09T23:39:05.015Z,7.18
2023-02-09T23:41:32.057Z,7.10
2023-02-09T23:43:59.283Z,7.38
2023-02-09T23:46:28.820Z,8.95
2023-02-09T23:48:56.551Z,7.70
2023-02-09T23:51:29.548Z,8.38
2023-02-09T23:53:59.243Z,7.40
2023-02-09T23:56:26.897Z,7.53
2023-02-09T23:58:54.338Z,7.55
